Time,TemperatureF,DewpointF,PressureIn,WindDirection,WindDirectionDegrees,WindSpeedMPH,WindSpeedGustMPH,Humidity,HourlyPrecipIn,Conditions,Clouds,dailyrainin,SoftwareType,DateUTC
2013-06-01 00:07:00,70.3,68.0,29.91,SW,215,3.0,-999.0,93,-99.99,,,0.00,weatherlink.com 1.10,2013-06-01 04:07:00,
2013-06-01 00:22:00,70.2,68.0,29.91,SSW,195,1.0,-999.0,92,-99.99,,,0.00,weatherlink.com 1.10,2013-06-01 04:22:00,
2013-06-01 00:37:00,69.9,68.0,29.92,WSW,245,6.0,-999.0,93,-99.99,,,0.01,weatherlink.com 1.10,2013-06-01 04:37:00,
2013-06-01 00:52:00,69.5,68.0,29.91,SW,231,1.0,-999.0,93,-99.99,,,0.04,weatherlink.com 1.10,2013-06-01 04:52:00,
2013-06-01 01:07:00,69.0,67.0,29.88,SW,218,0.0,-999.0,93,-99.99,,,0.05,weatherlink.com 1.10,2013-06-01 05:07:00,
2013-06-01 01:22:00,68.6,67.0,29.88,SW,218,1.0,-999.0,93,-99.99,,,0.06,weatherlink.com 1.10,2013-06-01 05:22:00,
2013-06-01 01:37:00,68.3,66.0,29.85,SSE,159,2.0,-999.0,93,-99.99,,,0.07,weatherlink.com 1.10,2013-06-01 05:37:00,
2013-06-01 01:52:00,67.6,66.0,29.87,SSE,163,1.0,-999.0,93,-99.99,,,0.08,weatherlink.com 1.10,2013-06-01 05:52:00,
2013-06-01 02:07:00,66.5,64.0,29.86,WSW,248,1.0,-999.0,91,-99.99,,,0.08,weatherlink.com 1.10,2013-06-01 06:07:00,
2013-06-01 02:22:00,65.5,63.0,29.87,SW,220,4.0,-999.0,90,-99.99,,,0.09,weatherlink.com 1.10,2013-06-01 06:22:00,
2013-06-01 02:37:00,64.9,63.0,29.84,South,189,2.0,-999.0,92,-99.99,,,0.11,weatherlink.com 1.10,2013-06-01 06:37:00,
2013-06-01 02:52:00,64.3,62.0,29.86,West,263,0.0,-999.0,92,-99.99,,,0.12,weatherlink.com 1.10,2013-06-01 06:52:00,
2013-06-01 03:07:00,63.9,62.0,29.87,South,190,2.0,-999.0,93,-99.99,,,0.12,weatherlink.com 1.10,2013-06-01 07:07:00,
2013-06-01 03:22:00,63.7,62.0,29.88,WSW,241,3.0,-999.0,93,-99.99,,,0.12,weatherlink.com 1.10,2013-06-01 07:22:00,
2013-06-01 03:37:00,63.5,62.0,29.86,WSW,245,0.0,-999.0,93,-99.99,,,0.12,weatherlink.com 1.10,2013-06-01 07:37:00,
2013-06-01 03:52:00,63.3,61.0,29.86,SSE,149,3.0,-999.0,93,-99.99,,,0.12,weatherlink.com 1.10,2013-06-01 07:52:00,
2013-06-01 04:07:00,63.1,61.0,29.89,WSW,246,6.0,-999.0,94,-99.99,,,0.15,weatherlink.com 1.10,2013-06-01 08:07:00,
2013-06-01 04:22:00,63.3,62.0,29.89,SW,221,2.0,-999.0,95,-99.99,,,0.28,weatherlink.com 1.10,2013-06-01 08:22:00,
2013-06-01 04:37:00,63.1,62.0,29.87,SW,219,3.0,-999.0,95,-99.99,,,0.41,weatherlink.com 1.10,2013-06-01 08:37:00,
2013-06-01 04:52:00,63.0,62.0,29.87,SW,236,0.0,-999.0,95,-99.99,,,0.44,weatherlink.com 1.10,2013-06-01 08:52:00,
2013-06-01 05:07:00,63.1,62.0,29.88,WSW,243,1.0,-999.0,95,-99.99,,,0.48,weatherlink.com 1.10,2013-06-01 09:07:00,
2013-06-01 05:22:00,63.0,62.0,29.86,WSW,239,0.0,-999.0,95,-99.99,,,0.49,weatherlink.com 1.10,2013-06-01 09:22:00,
2013-06-01 05:37:00,62.8,61.0,29.84,WSW,239,0.0,-999.0,95,-99.99,,,0.49,weatherlink.com 1.10,2013-06-01 09:37:00,
2013-06-01 05:52:00,62.8,61.0,29.83,SE,145,0.0,-999.0,95,-99.99,,,0.49,weatherlink.com 1.10,2013-06-01 09:52:00,
2013-06-01 06:07:00,62.9,62.0,29.84,SSE,163,0.0,-999.0,96,-99.99,,,0.49,weatherlink.com 1.10,2013-06-01 10:07:00,
2013-06-01 06:22:00,62.9,62.0,29.86,SSW,211,1.0,-999.0,96,-99.99,,,0.50,weatherlink.com 1.10,2013-06-01 10:22:00,
2013-06-01 06:37:00,62.9,62.0,29.85,SSW,210,1.0,-999.0,96,-99.99,,,0.50,weatherlink.com 1.10,2013-06-01 10:37:00,
2013-06-01 06:52:00,62.9,62.0,29.85,SSW,211,2.0,-999.0,96,-99.99,,,0.50,weatherlink.com 1.10,2013-06-01 10:52:00,
2013-06-01 07:07:00,62.8,62.0,29.86,SSW,208,0.0,-999.0,96,-99.99,,,0.50,weatherlink.com 1.10,2013-06-01 11:07:00,
2013-06-01 07:22:00,63.0,62.0,29.85,SSW,192,0.0,-999.0,96,-99.99,,,0.50,weatherlink.com 1.10,2013-06-01 11:22:00,
2013-06-01 07:37:00,63.1,62.0,29.85,SSE,159,0.0,-999.0,96,-99.99,,,0.50,weatherlink.com 1.10,2013-06-01 11:37:00,
2013-06-01 07:52:00,63.3,62.0,29.84,SW,232,0.0,-999.0,96,-99.99,,,0.50,weatherlink.com 1.10,2013-06-01 11:52:00,
2013-06-01 08:07:00,63.8,63.0,29.83,South,187,1.0,-999.0,96,-99.99,,,0.50,weatherlink.com 1.10,2013-06-01 12:07:00,
2013-06-01 08:22:00,64.2,63.0,29.82,SSW,201,1.0,-999.0,96,-99.99,,,0.50,weatherlink.com 1.10,2013-06-01 12:22:00,
2013-06-01 08:37:00,64.6,63.0,29.81,SW,224,0.0,-999.0,95,-99.99,,,0.50,weatherlink.com 1.10,2013-06-01 12:37:00,
2013-06-01 08:52:00,65.2,64.0,29.80,WSW,243,2.0,-999.0,95,-99.99,,,0.50,weatherlink.com 1.10,2013-06-01 12:52:00,
2013-06-01 09:07:00,65.8,64.0,29.80,WSW,252,5.0,-999.0,94,-99.99,,,0.50,weatherlink.com 1.10,2013-06-01 13:07:00,
2013-06-01 09:22:00,66.2,64.0,29.81,SW,235,4.0,-999.0,93,-99.99,,,0.50,weatherlink.com 1.10,2013-06-01 13:22:00,
2013-06-01 09:37:00,66.8,65.0,29.80,SSE,165,0.0,-999.0,92,-99.99,,,0.50,weatherlink.com 1.10,2013-06-01 13:37:00,
2013-06-01 09:52:00,68.2,65.0,29.80,SSE,160,2.0,-999.0,90,-99.99,,,0.50,weatherlink.com 1.10,2013-06-01 13:52:00,
2013-06-01 10:07:00,69.2,65.0,29.80,SSW,210,4.0,-999.0,87,-99.99,,,0.50,weatherlink.com 1.10,2013-06-01 14:07:00,
2013-06-01 10:22:00,70.3,66.0,29.80,SSW,212,4.0,-999.0,86,-99.99,,,0.50,weatherlink.com 1.10,2013-06-01 14:22:00,
2013-06-01 10:37:00,70.9,66.0,29.81,WSW,239,4.0,-999.0,83,-99.99,,,0.50,weatherlink.com 1.10,2013-06-01 14:37:00,
2013-06-01 10:52:00,71.1,66.0,29.81,WSW,242,3.0,-999.0,83,-99.99,,,0.50,weatherlink.com 1.10,2013-06-01 14:52:00,
2013-06-01 11:07:00,71.3,66.0,29.82,SW,228,2.0,-999.0,83,-99.99,,,0.50,weatherlink.com 1.10,2013-06-01 15:07:00,
2013-06-01 11:22:00,72.2,66.0,29.82,SW,233,1.0,-999.0,82,-99.99,,,0.50,weatherlink.com 1.10,2013-06-01 15:22:00,
2013-06-01 11:37:00,72.8,66.0,29.82,SW,231,0.0,-999.0,79,-99.99,,,0.50,weatherlink.com 1.10,2013-06-01 15:37:00,
2013-06-01 11:52:00,73.2,66.0,29.82,NNW,333,1.0,-999.0,78,-99.99,,,0.50,weatherlink.com 1.10,2013-06-01 15:52:00,
2013-06-01 12:07:00,74.1,66.0,29.82,SSW,210,1.0,-999.0,77,-99.99,,,0.50,weatherlink.com 1.10,2013-06-01 16:07:00,
2013-06-01 12:22:00,75.1,66.0,29.82,SW,235,3.0,-999.0,73,-99.99,,,0.50,weatherlink.com 1.10,2013-06-01 16:22:00,
2013-06-01 12:37:00,75.7,66.0,29.82,South,190,4.0,-999.0,73,-99.99,,,0.50,weatherlink.com 1.10,2013-06-01 16:37:00,
2013-06-01 12:53:00,76.0,66.0,29.82,West,260,5.0,-999.0,71,-99.99,,,0.50,weatherlink.com 1.10,2013-06-01 16:53:00,
2013-06-01 13:08:00,76.8,65.0,29.82,SW,236,4.0,-999.0,68,-99.99,,,0.50,weatherlink.com 1.10,2013-06-01 17:08:00,
2013-06-01 13:23:00,76.2,66.0,29.82,SW,236,6.0,-999.0,70,-99.99,,,0.50,weatherlink.com 1.10,2013-06-01 17:23:00,
2013-06-01 13:38:00,75.4,65.0,29.83,SW,228,4.0,-999.0,71,-99.99,,,0.50,weatherlink.com 1.10,2013-06-01 17:38:00,
2013-06-01 13:53:00,75.5,66.0,29.82,South,186,5.0,-999.0,72,-99.99,,,0.50,weatherlink.com 1.10,2013-06-01 17:53:00,
2013-06-01 14:08:00,76.5,65.0,29.82,WSW,238,10.0,-999.0,68,-99.99,,,0.50,weatherlink.com 1.10,2013-06-01 18:08:00,
2013-06-01 14:23:00,77.2,65.0,29.82,South,172,1.0,-999.0,67,-99.99,,,0.50,weatherlink.com 1.10,2013-06-01 18:23:00,
2013-06-01 14:38:00,77.2,65.0,29.81,West,259,5.0,-999.0,67,-99.99,,,0.50,weatherlink.com 1.10,2013-06-01 18:38:00,
2013-06-01 14:53:00,77.4,65.0,29.81,South,188,2.0,-999.0,66,-99.99,,,0.50,weatherlink.com 1.10,2013-06-01 18:53:00,
2013-06-01 15:08:00,76.6,65.0,29.81,SSW,201,2.0,-999.0,67,-99.99,,,0.50,weatherlink.com 1.10,2013-06-01 19:08:00,
2013-06-01 15:23:00,76.2,64.0,29.81,West,279,3.0,-999.0,66,-99.99,,,0.50,weatherlink.com 1.10,2013-06-01 19:23:00,
2013-06-01 15:38:00,76.3,64.0,29.81,WSW,245,2.0,-999.0,66,-99.99,,,0.50,weatherlink.com 1.10,2013-06-01 19:38:00,
2013-06-01 15:53:00,76.1,64.0,29.82,SW,217,3.0,-999.0,66,-99.99,,,0.50,weatherlink.com 1.10,2013-06-01 19:53:00,
2013-06-01 16:08:00,75.1,63.0,29.82,SW,220,3.0,-999.0,67,-99.99,,,0.50,weatherlink.com 1.10,2013-06-01 20:08:00,
2013-06-01 16:23:00,74.3,63.0,29.82,SW,232,4.0,-999.0,68,-99.99,,,0.50,weatherlink.com 1.10,2013-06-01 20:23:00,
2013-06-01 16:38:00,73.5,63.0,29.82,SW,222,7.0,-999.0,70,-99.99,,,0.50,weatherlink.com 1.10,2013-06-01 20:38:00,
2013-06-01 16:53:00,72.9,64.0,29.82,SW,224,2.0,-999.0,73,-99.99,,,0.50,weatherlink.com 1.10,2013-06-01 20:53:00,
2013-06-01 17:08:00,72.7,64.0,29.81,SW,236,0.0,-999.0,74,-99.99,,,0.50,weatherlink.com 1.10,2013-06-01 21:08:00,
2013-06-01 17:23:00,72.9,64.0,29.81,NW,305,0.0,-999.0,74,-99.99,,,0.50,weatherlink.com 1.10,2013-06-01 21:23:00,
2013-06-01 17:38:00,72.4,64.0,29.81,SW,236,1.0,-999.0,74,-99.99,,,0.50,weatherlink.com 1.10,2013-06-01 21:38:00,
2013-06-01 17:53:00,71.9,64.0,29.80,SW,236,0.0,-999.0,77,-99.99,,,0.50,weatherlink.com 1.10,2013-06-01 21:53:00,
2013-06-01 18:08:00,71.5,65.0,29.80,WSW,245,0.0,-999.0,79,-99.99,,,0.50,weatherlink.com 1.10,2013-06-01 22:08:00,
2013-06-01 18:23:00,71.8,65.0,29.80,SSW,202,0.0,-999.0,78,-99.99,,,0.50,weatherlink.com 1.10,2013-06-01 22:23:00,
2013-06-01 18:38:00,71.9,64.0,29.79,SW,218,0.0,-999.0,77,-99.99,,,0.50,weatherlink.com 1.10,2013-06-01 22:38:00,
2013-06-01 18:53:00,71.8,64.0,29.79,WSW,241,0.0,-999.0,77,-99.99,,,0.50,weatherlink.com 1.10,2013-06-01 22:53:00,
2013-06-01 19:08:00,71.5,64.0,29.78,WSW,243,1.0,-999.0,77,-99.99,,,0.50,weatherlink.com 1.10,2013-06-01 23:08:00,
2013-06-01 19:23:00,71.3,65.0,29.78,WSW,238,0.0,-999.0,79,-99.99,,,0.50,weatherlink.com 1.10,2013-06-01 23:23:00,
2013-06-01 19:38:00,71.1,64.0,29.78,SSE,153,0.0,-999.0,79,-99.99,,,0.50,weatherlink.com 1.10,2013-06-01 23:38:00,
2013-06-01 19:53:00,71.0,65.0,29.78,WSW,243,0.0,-999.0,80,-99.99,,,0.50,weatherlink.com 1.10,2013-06-01 23:53:00,
2013-06-01 20:08:00,70.8,65.0,29.78,SW,218,0.0,-999.0,81,-99.99,,,0.50,weatherlink.com 1.10,2013-06-02 00:08:00,
2013-06-01 20:23:00,70.6,65.0,29.77,SSE,162,0.0,-999.0,82,-99.99,,,0.50,weatherlink.com 1.10,2013-06-02 00:23:00,
2013-06-01 20:38:00,70.6,65.0,29.77,SSE,160,0.0,-999.0,81,-99.99,,,0.50,weatherlink.com 1.10,2013-06-02 00:38:00,
2013-06-01 20:53:00,70.4,65.0,29.77,WSW,245,2.0,-999.0,83,-99.99,,,0.50,weatherlink.com 1.10,2013-06-02 00:53:00,
2013-06-01 21:08:00,70.1,65.0,29.77,SSE,158,0.0,-999.0,83,-99.99,,,0.50,weatherlink.com 1.10,2013-06-02 01:08:00,
2013-06-01 21:23:00,69.9,65.0,29.76,WSW,239,0.0,-999.0,84,-99.99,,,0.50,weatherlink.com 1.10,2013-06-02 01:23:00,
2013-06-01 21:38:00,69.7,65.0,29.76,SW,229,0.0,-999.0,84,-99.99,,,0.50,weatherlink.com 1.10,2013-06-02 01:38:00,
2013-06-01 21:53:00,69.4,65.0,29.76,SW,229,0.0,-999.0,85,-99.99,,,0.50,weatherlink.com 1.10,2013-06-02 01:53:00,
2013-06-01 22:08:00,69.2,65.0,29.75,SW,230,0.0,-999.0,86,-99.99,,,0.50,weatherlink.com 1.10,2013-06-02 02:08:00,
2013-06-01 22:23:00,69.0,65.0,29.74,SW,229,0.0,-999.0,86,-99.99,,,0.50,weatherlink.com 1.10,2013-06-02 02:23:00,
2013-06-01 22:38:00,68.7,64.0,29.74,SW,229,0.0,-999.0,86,-99.99,,,0.50,weatherlink.com 1.10,2013-06-02 02:38:00,
2013-06-01 22:53:00,68.3,64.0,29.73,SW,229,0.0,-999.0,87,-99.99,,,0.50,weatherlink.com 1.10,2013-06-02 02:53:00,
2013-06-01 23:08:00,67.8,64.0,29.73,SW,229,0.0,-999.0,87,-99.99,,,0.50,weatherlink.com 1.10,2013-06-02 03:08:00,
2013-06-01 23:23:00,67.6,64.0,29.73,SW,229,0.0,-999.0,89,-99.99,,,0.50,weatherlink.com 1.10,2013-06-02 03:23:00,
2013-06-01 23:38:00,67.6,64.0,29.72,SW,229,0.0,-999.0,89,-99.99,,,0.50,weatherlink.com 1.10,2013-06-02 03:38:00,
2013-06-01 23:53:00,67.5,64.0,29.72,SW,229,0.0,-999.0,89,-99.99,,,0.50,weatherlink.com 1.10,2013-06-02 03:53:00,